Gunsan, South Korea

12:50 PM KST on July 05, 2015 (GMT +0900)
Kunsan Air Base | | Change Station
CLOSE
Current Station
Airport
Location: Gunsan AB,
Elevation: 33 ft
Nearby Weather Stations

Elev 33 ft 35.90 °N, 126.62 °E | Updated 52 minutes ago

Mostly Cloudy
Mostly Cloudy
77 °F
Feels Like 77 °F
N
6
Wind Variable Wind from WSW

Today
High -- | Low -- °F
--% Chance of Precip.
Yesterday
High -- | Low -- °F
Precip. -- in
5:21 AM 7:53 PM
Waning Gibbous, 88% visible
Pressure 29.88 in
Visibility 10.0 miles
Clouds Few 15000 ft
Scattered Clouds 18000 ft
Mostly Cloudy 20000 ft
Dew Point 63 °F
Humidity 63%
Rainfall 0.00 in
Snow Depth Not available.
UV 7 out of 12
Pollen Not available.
Air Quality Not available.
Flu Activity Not available.
METAR RKJK 050258Z AUTO 25005KT 10SM FEW150 SCT180 BKN200 25/17 A2987 RMK AO2 SLP119 T02480174 57007 VISNO RWY18 CHINO RWY18 $

More Conditions Fewer Conditions

Pressure 29.88 in
Visibility 10.0 miles
Clouds Few 15000 ft
Scattered Clouds 18000 ft
Mostly Cloudy 20000 ft
Dew Point 63 °F
Humidity 63%
Rainfall 0.00 in
Snow Depth Not available.
UV 7 out of 12
Pollen Not available.
Air Quality Not available.
Flu Activity Not available.
METAR RKJK 050258Z AUTO 25005KT 10SM FEW150 SCT180 BKN200 25/17 A2987 RMK AO2 SLP119 T02480174 57007 VISNO RWY18 CHINO RWY18 $

More Conditions Fewer Conditions

10-Day Weather Forecast

×

Almanac

Astronomy

Jul. 05, 2015 Rise Set
Actual Time
Civil Twilight
Nautical Twilight
Astronomical Twilight
Moon
Length of Visible Light
Length of Day
Tomorrow will be .
, % of the Moon is Illuminated

Today's Extremes

Country Highs Country Lows

Community

WunderPhotos

Upload Photos

1,835,193 photos uploaded!

WunderBlogs® & News

Nearby

Air Quality

  Air Quality AQ Index Pollutant
Not available.

Snow Depth

Station Depth Elevation

Earthquake Activity

City Distance Mag. Time & Date
Minimum magnitude displayed is 2.5.

Coastal Water Temperatures

Place Temperature

Stations

Nearby Weather Stations

Station Location Temp. Windchill Dew Point Humidity Wind Precip. Elev Updated Type